sensor_id;sensor_type;location;lat;lon;timestamp;pressure;altitude;pressure_sealevel;temperature;humidity
26978;BME280;56314;48.088;11.642;2023-03-19T00:02:07;95087.13;;;8.11;71.75
26978;BME280;56314;48.088;11.642;2023-03-19T00:04:33;95090.06;;;8.07;72.17
26978;BME280;56314;48.088;11.642;2023-03-19T00:06:58;95085.59;;;7.96;72.18
26978;BME280;56314;48.088;11.642;2023-03-19T00:09:23;95087.59;;;7.92;72.04
26978;BME280;56314;48.088;11.642;2023-03-19T00:11:49;95085.50;;;7.97;72.58
26978;BME280;56314;48.088;11.642;2023-03-19T00:14:14;95091.81;;;7.82;72.05
26978;BME280;56314;48.088;11.642;2023-03-19T00:16:41;95087.47;;;7.69;73.48
26978;BME280;56314;48.088;11.642;2023-03-19T00:19:06;95083.19;;;7.68;73.42
26978;BME280;56314;48.088;11.642;2023-03-19T00:21:32;95077.75;;;7.72;73.70
26978;BME280;56314;48.088;11.642;2023-03-19T00:23:58;95079.63;;;7.69;74.26
26978;BME280;56314;48.088;11.642;2023-03-19T00:26:27;95080.81;;;7.52;74.17
26978;BME280;56314;48.088;11.642;2023-03-19T00:28:53;95086.41;;;7.72;74.58
26978;BME280;56314;48.088;11.642;2023-03-19T00:31:19;95085.06;;;7.66;73.74
26978;BME280;56314;48.088;11.642;2023-03-19T00:33:44;95085.19;;;7.52;73.97
26978;BME280;56314;48.088;11.642;2023-03-19T00:36:10;95092.22;;;7.51;74.33
26978;BME280;56314;48.088;11.642;2023-03-19T00:38:36;95085.31;;;7.50;74.86
26978;BME280;56314;48.088;11.642;2023-03-19T00:41:03;95092.22;;;7.51;74.42
26978;BME280;56314;48.088;11.642;2023-03-19T00:43:29;95096.50;;;7.52;74.56
26978;BME280;56314;48.088;11.642;2023-03-19T00:45:55;95102.75;;;7.63;74.26
26978;BME280;56314;48.088;11.642;2023-03-19T00:48:20;95096.38;;;7.54;74.43
26978;BME280;56314;48.088;11.642;2023-03-19T00:50:46;95106.00;;;7.40;74.50
26978;BME280;56314;48.088;11.642;2023-03-19T00:53:12;95109.25;;;7.31;74.10
26978;BME280;56314;48.088;11.642;2023-03-19T00:55:37;95112.06;;;7.28;74.22
26978;BME280;56314;48.088;11.642;2023-03-19T00:58:03;95111.88;;;7.31;73.80
26978;BME280;56314;48.088;11.642;2023-03-19T01:00:30;95111.16;;;7.16;74.10
26978;BME280;56314;48.088;11.642;2023-03-19T01:02:57;95108.13;;;7.09;74.35
26978;BME280;56314;48.088;11.642;2023-03-19T01:05:23;95108.22;;;7.08;75.37
26978;BME280;56314;48.088;11.642;2023-03-19T01:07:49;95103.53;;;7.00;75.29
26978;BME280;56314;48.088;11.642;2023-03-19T01:10:17;95111.75;;;6.94;75.74
26978;BME280;56314;48.088;11.642;2023-03-19T01:12:42;95116.03;;;6.82;76.18
26978;BME280;56314;48.088;11.642;2023-03-19T01:15:08;95120.72;;;6.77;76.89
26978;BME280;56314;48.088;11.642;2023-03-19T01:17:33;95121.03;;;6.72;77.31
26978;BME280;56314;48.088;11.642;2023-03-19T01:19:59;95109.78;;;6.72;77.64
26978;BME280;56314;48.088;11.642;2023-03-19T01:22:24;95109.16;;;6.81;77.26
26978;BME280;56314;48.088;11.642;2023-03-19T01:24:50;95108.59;;;6.76;78.25
26978;BME280;56314;48.088;11.642;2023-03-19T01:27:15;95102.25;;;6.80;77.85
26978;BME280;56314;48.088;11.642;2023-03-19T01:29:41;95103.81;;;6.83;77.27
26978;BME280;56314;48.088;11.642;2023-03-19T01:32:06;95106.03;;;6.89;77.46
26978;BME280;56314;48.088;11.642;2023-03-19T01:34:32;95114.38;;;6.94;77.05
26978;BME280;56314;48.088;11.642;2023-03-19T01:36:57;95116.47;;;6.89;77.39
26978;BME280;56314;48.088;11.642;2023-03-19T01:39:22;95118.56;;;6.97;77.21
26978;BME280;56314;48.088;11.642;2023-03-19T01:41:48;95113.13;;;6.87;76.61
26978;BME280;56314;48.088;11.642;2023-03-19T01:44:24;95110.63;;;6.85;77.08
26978;BME280;56314;48.088;11.642;2023-03-19T01:46:50;95112.81;;;6.91;76.73
26978;BME280;56314;48.088;11.642;2023-03-19T01:49:17;95112.81;;;6.78;77.55
26978;BME280;56314;48.088;11.642;2023-03-19T01:51:44;95111.09;;;6.65;78.21
26978;BME280;56314;48.088;11.642;2023-03-19T01:54:14;95112.88;;;6.64;78.36
26978;BME280;56314;48.088;11.642;2023-03-19T01:56:44;95112.34;;;6.59;78.42
26978;BME280;56314;48.088;11.642;2023-03-19T01:59:14;95113.31;;;6.71;79.11
26978;BME280;56314;48.088;11.642;2023-03-19T02:01:59;95115.69;;;6.74;78.38
26978;BME280;56314;48.088;11.642;2023-03-19T02:04:26;95118.00;;;6.66;78.11
26978;BME280;56314;48.088;11.642;2023-03-19T02:06:57;95124.63;;;6.57;78.14
26978;BME280;56314;48.088;11.642;2023-03-19T02:09:24;95116.63;;;6.60;78.27
26978;BME280;56314;48.088;11.642;2023-03-19T02:11:50;95131.22;;;6.50;78.02
26978;BME280;56314;48.088;11.642;2023-03-19T02:14:17;95129.19;;;6.40;78.81
26978;BME280;56314;48.088;11.642;2023-03-19T02:16:43;95130.13;;;6.39;78.89
26978;BME280;56314;48.088;11.642;2023-03-19T02:19:12;95123.78;;;6.43;79.23
26978;BME280;56314;48.088;11.642;2023-03-19T02:21:41;95126.59;;;6.40;78.77
26978;BME280;56314;48.088;11.642;2023-03-19T02:24:20;95114.97;;;6.31;79.57
26978;BME280;56314;48.088;11.642;2023-03-19T02:26:47;95117.16;;;6.25;79.78
26978;BME280;56314;48.088;11.642;2023-03-19T02:29:14;95107.75;;;6.22;79.42
26978;BME280;56314;48.088;11.642;2023-03-19T02:31:39;95108.50;;;6.24;79.75
26978;BME280;56314;48.088;11.642;2023-03-19T02:34:51;95111.63;;;6.29;79.70
26978;BME280;56314;48.088;11.642;2023-03-19T02:39:59;95122.66;;;6.20;78.65
26978;BME280;56314;48.088;11.642;2023-03-19T02:42:29;95121.00;;;6.19;79.81
26978;BME280;56314;48.088;11.642;2023-03-19T02:44:55;95133.91;;;6.21;79.31
26978;BME280;56314;48.088;11.642;2023-03-19T02:47:20;95132.16;;;6.21;79.21
26978;BME280;56314;48.088;11.642;2023-03-19T02:49:46;95129.94;;;6.15;80.28
26978;BME280;56314;48.088;11.642;2023-03-19T02:52:12;95136.06;;;6.14;79.86
26978;BME280;56314;48.088;11.642;2023-03-19T02:54:37;95135.09;;;6.02;80.15
26978;BME280;56314;48.088;11.642;2023-03-19T02:57:03;95140.88;;;5.93;81.32
26978;BME280;56314;48.088;11.642;2023-03-19T02:59:28;95143.19;;;5.97;81.78
26978;BME280;56314;48.088;11.642;2023-03-19T03:01:54;95141.34;;;5.99;81.02
26978;BME280;56314;48.088;11.642;2023-03-19T03:04:19;95139.84;;;5.95;81.35
26978;BME280;56314;48.088;11.642;2023-03-19T03:06:44;95136.47;;;5.93;81.21
26978;BME280;56314;48.088;11.642;2023-03-19T03:09:11;95139.94;;;5.94;81.23
26978;BME280;56314;48.088;11.642;2023-03-19T03:11:37;95139.91;;;6.08;81.41
26978;BME280;56314;48.088;11.642;2023-03-19T03:14:05;95153.91;;;6.07;81.60
26978;BME280;56314;48.088;11.642;2023-03-19T03:16:30;95155.84;;;6.04;81.97
26978;BME280;56314;48.088;11.642;2023-03-19T03:18:56;95156.28;;;5.96;80.99
26978;BME280;56314;48.088;11.642;2023-03-19T03:21:21;95154.72;;;5.93;81.94
26978;BME280;56314;48.088;11.642;2023-03-19T03:23:47;95162.34;;;5.96;80.83
26978;BME280;56314;48.088;11.642;2023-03-19T03:26:13;95153.72;;;5.81;80.72
26978;BME280;56314;48.088;11.642;2023-03-19T03:28:38;95152.13;;;5.79;82.24
26978;BME280;56314;48.088;11.642;2023-03-19T03:31:04;95151.50;;;5.75;81.72
26978;BME280;56314;48.088;11.642;2023-03-19T03:33:29;95153.72;;;5.81;81.68
26978;BME280;56314;48.088;11.642;2023-03-19T03:35:54;95159.41;;;5.74;81.94
26978;BME280;56314;48.088;11.642;2023-03-19T03:38:20;95163.06;;;5.71;82.14
26978;BME280;56314;48.088;11.642;2023-03-19T03:40:49;95156.88;;;5.72;82.65
26978;BME280;56314;48.088;11.642;2023-03-19T03:43:15;95162.94;;;5.73;82.85
26978;BME280;56314;48.088;11.642;2023-03-19T03:45:43;95171.69;;;5.72;82.89
26978;BME280;56314;48.088;11.642;2023-03-19T03:48:08;95170.59;;;5.76;82.69
26978;BME280;56314;48.088;11.642;2023-03-19T03:50:33;95164.16;;;5.81;83.00
26978;BME280;56314;48.088;11.642;2023-03-19T03:52:59;95165.38;;;5.76;82.50
26978;BME280;56314;48.088;11.642;2023-03-19T03:55:24;95166.94;;;5.78;82.96
26978;BME280;56314;48.088;11.642;2023-03-19T03:57:49;95169.25;;;5.83;83.28
26978;BME280;56314;48.088;11.642;2023-03-19T04:00:15;95172.22;;;5.91;82.50
26978;BME280;56314;48.088;11.642;2023-03-19T04:02:40;95167.69;;;5.95;82.25
26978;BME280;56314;48.088;11.642;2023-03-19T04:05:06;95166.47;;;5.86;82.46
26978;BME280;56314;48.088;11.642;2023-03-19T04:07:31;95168.03;;;5.89;81.93
26978;BME280;56314;48.088;11.642;2023-03-19T04:09:57;95178.88;;;5.82;82.29
26978;BME280;56314;48.088;11.642;2023-03-19T04:12:23;95172.88;;;5.95;82.11
26978;BME280;56314;48.088;11.642;2023-03-19T04:14:49;95168.59;;;5.94;81.46
26978;BME280;56314;48.088;11.642;2023-03-19T04:17:14;95174.75;;;5.93;80.96
26978;BME280;56314;48.088;11.642;2023-03-19T04:19:39;95174.28;;;5.86;81.55
26978;BME280;56314;48.088;11.642;2023-03-19T04:22:05;95182.47;;;5.80;82.08
26978;BME280;56314;48.088;11.642;2023-03-19T04:24:32;95187.78;;;5.78;82.56
26978;BME280;56314;48.088;11.642;2023-03-19T04:26:57;95180.25;;;5.88;82.24
26978;BME280;56314;48.088;11.642;2023-03-19T04:29:23;95174.28;;;5.86;81.53
26978;BME280;56314;48.088;11.642;2023-03-19T04:31:49;95188.72;;;5.92;81.59
26978;BME280;56314;48.088;11.642;2023-03-19T04:34:15;95183.88;;;6.00;81.18
26978;BME280;56314;48.088;11.642;2023-03-19T04:36:41;95190.66;;;6.03;80.81
26978;BME280;56314;48.088;11.642;2023-03-19T04:39:07;95189.00;;;6.01;81.16
26978;BME280;56314;48.088;11.642;2023-03-19T04:41:32;95192.69;;;5.97;81.38
26978;BME280;56314;48.088;11.642;2023-03-19T04:43:57;95189.75;;;5.89;81.42
26978;BME280;56314;48.088;11.642;2023-03-19T04:46:23;95195.50;;;5.94;81.66
26978;BME280;56314;48.088;11.642;2023-03-19T04:48:48;95197.81;;;5.84;81.69
26978;BME280;56314;48.088;11.642;2023-03-19T04:51:14;95191.50;;;5.89;81.94
26978;BME280;56314;48.088;11.642;2023-03-19T04:53:40;95189.38;;;5.81;81.47
26978;BME280;56314;48.088;11.642;2023-03-19T04:56:06;95196.53;;;5.77;82.47
26978;BME280;56314;48.088;11.642;2023-03-19T04:58:32;95204.91;;;5.82;82.45
26978;BME280;56314;48.088;11.642;2023-03-19T05:00:57;95204.25;;;5.79;82.43
26978;BME280;56314;48.088;11.642;2023-03-19T05:03:23;95196.53;;;5.77;81.67
26978;BME280;56314;48.088;11.642;2023-03-19T05:05:48;95200.81;;;5.93;82.32
26978;BME280;56314;48.088;11.642;2023-03-19T05:08:14;95200.06;;;5.76;82.37
26978;BME280;56314;48.088;11.642;2023-03-19T05:10:39;95210.78;;;5.72;82.45
26978;BME280;56314;48.088;11.642;2023-03-19T05:13:05;95205.66;;;5.70;82.83
26978;BME280;56314;48.088;11.642;2023-03-19T05:15:31;95221.84;;;5.75;82.79
26978;BME280;56314;48.088;11.642;2023-03-19T05:17:57;95217.84;;;5.69;83.03
26978;BME280;56314;48.088;11.642;2023-03-19T05:20:23;95225.19;;;5.77;82.87
26978;BME280;56314;48.088;11.642;2023-03-19T05:22:48;95234.22;;;5.72;83.24
26978;BME280;56314;48.088;11.642;2023-03-19T05:25:13;95233.94;;;5.76;83.62
26978;BME280;56314;48.088;11.642;2023-03-19T05:27:40;95223.88;;;5.84;83.12
26978;BME280;56314;48.088;11.642;2023-03-19T05:30:06;95234.47;;;5.96;83.12
26978;BME280;56314;48.088;11.642;2023-03-19T05:32:32;95235.19;;;5.99;82.94
26978;BME280;56314;48.088;11.642;2023-03-19T05:34:58;95237.94;;;5.96;83.54
26978;BME280;56314;48.088;11.642;2023-03-19T05:37:24;95240.66;;;6.09;83.36
26978;BME280;56314;48.088;11.642;2023-03-19T05:39:50;95244.09;;;6.24;82.40
26978;BME280;56314;48.088;11.642;2023-03-19T05:42:16;95247.06;;;6.18;82.66
26978;BME280;56314;48.088;11.642;2023-03-19T05:44:41;95253.59;;;6.25;82.92
26978;BME280;56314;48.088;11.642;2023-03-19T05:47:07;95259.06;;;6.35;82.05
26978;BME280;56314;48.088;11.642;2023-03-19T05:49:34;95268.25;;;6.41;83.01
26978;BME280;56314;48.088;11.642;2023-03-19T05:51:59;95272.91;;;6.50;82.36
26978;BME280;56314;48.088;11.642;2023-03-19T05:54:25;95262.28;;;6.53;82.94
26978;BME280;56314;48.088;11.642;2023-03-19T05:56:51;95262.53;;;6.63;82.43
26978;BME280;56314;48.088;11.642;2023-03-19T05:59:16;95266.34;;;6.72;81.75
26978;BME280;56314;48.088;11.642;2023-03-19T06:01:41;95271.03;;;6.80;80.79
26978;BME280;56314;48.088;11.642;2023-03-19T06:04:07;95272.78;;;6.93;80.21
26978;BME280;56314;48.088;11.642;2023-03-19T06:06:32;95279.19;;;7.02;79.92
26978;BME280;56314;48.088;11.642;2023-03-19T06:08:58;95280.25;;;7.13;80.28
26978;BME280;56314;48.088;11.642;2023-03-19T06:11:23;95279.84;;;7.19;79.39
26978;BME280;56314;48.088;11.642;2023-03-19T06:13:48;95288.75;;;7.29;78.80
26978;BME280;56314;48.088;11.642;2023-03-19T06:16:14;95291.16;;;7.32;78.73
26978;BME280;56314;48.088;11.642;2023-03-19T06:18:39;95293.28;;;7.40;78.54
26978;BME280;56314;48.088;11.642;2023-03-19T06:21:05;95299.75;;;7.47;78.38
26978;BME280;56314;48.088;11.642;2023-03-19T06:23:30;95303.66;;;7.54;78.38
26978;BME280;56314;48.088;11.642;2023-03-19T06:25:55;95298.94;;;7.60;78.30
26978;BME280;56314;48.088;11.642;2023-03-19T06:28:21;95303.03;;;7.64;77.54
26978;BME280;56314;48.088;11.642;2023-03-19T06:30:46;95315.59;;;7.72;77.21
26978;BME280;56314;48.088;11.642;2023-03-19T06:33:12;95311.28;;;7.83;76.63
26978;BME280;56314;48.088;11.642;2023-03-19T06:35:38;95313.81;;;7.85;76.90
26978;BME280;56314;48.088;11.642;2023-03-19T06:38:04;95325.53;;;7.92;76.49
26978;BME280;56314;48.088;11.642;2023-03-19T06:40:30;95317.16;;;8.00;77.43
26978;BME280;56314;48.088;11.642;2023-03-19T06:42:55;95322.69;;;8.08;76.57
26978;BME280;56314;48.088;11.642;2023-03-19T06:45:21;95330.16;;;8.14;75.91
26978;BME280;56314;48.088;11.642;2023-03-19T06:47:46;95325.34;;;8.21;75.81
26978;BME280;56314;48.088;11.642;2023-03-19T06:50:13;95323.13;;;8.28;75.87
26978;BME280;56314;48.088;11.642;2023-03-19T06:52:39;95323.44;;;8.36;75.84
26978;BME280;56314;48.088;11.642;2023-03-19T06:55:05;95328.22;;;8.42;75.33
26978;BME280;56314;48.088;11.642;2023-03-19T06:57:32;95331.56;;;8.44;75.27
26978;BME280;56314;48.088;11.642;2023-03-19T06:59:57;95336.22;;;8.54;74.38
26978;BME280;56314;48.088;11.642;2023-03-19T07:02:23;95348.25;;;8.56;74.49
26978;BME280;56314;48.088;11.642;2023-03-19T07:04:48;95356.09;;;8.56;74.66
26978;BME280;56314;48.088;11.642;2023-03-19T07:07:13;95354.91;;;8.60;74.55
26978;BME280;56314;48.088;11.642;2023-03-19T07:09:39;95364.25;;;8.65;74.45
26978;BME280;56314;48.088;11.642;2023-03-19T07:12:05;95363.09;;;8.69;74.05
26978;BME280;56314;48.088;11.642;2023-03-19T07:14:30;95372.28;;;8.74;73.92
26978;BME280;56314;48.088;11.642;2023-03-19T07:16:55;95374.25;;;8.84;73.15
26978;BME280;56314;48.088;11.642;2023-03-19T07:19:21;95378.94;;;8.91;72.61
26978;BME280;56314;48.088;11.642;2023-03-19T07:21:47;95384.31;;;8.90;73.34
26978;BME280;56314;48.088;11.642;2023-03-19T07:24:12;95384.06;;;8.93;73.18
26978;BME280;56314;48.088;11.642;2023-03-19T07:26:38;95392.00;;;9.04;73.04
26978;BME280;56314;48.088;11.642;2023-03-19T07:29:03;95398.72;;;9.08;72.72
26978;BME280;56314;48.088;11.642;2023-03-19T07:31:29;95399.09;;;9.15;73.58
26978;BME280;56314;48.088;11.642;2023-03-19T07:33:54;95402.84;;;9.24;73.88
26978;BME280;56314;48.088;11.642;2023-03-19T07:36:20;95403.25;;;9.31;73.14
26978;BME280;56314;48.088;11.642;2023-03-19T07:38:46;95412.56;;;9.35;72.47
26978;BME280;56314;48.088;11.642;2023-03-19T07:41:11;95409.84;;;9.36;72.73
26978;BME280;56314;48.088;11.642;2023-03-19T07:43:36;95419.38;;;9.37;72.47
26978;BME280;56314;48.088;11.642;2023-03-19T07:46:02;95415.56;;;9.42;72.25
26978;BME280;56314;48.088;11.642;2023-03-19T07:48:27;95416.19;;;9.45;72.05
26978;BME280;56314;48.088;11.642;2023-03-19T07:50:53;95424.03;;;9.45;72.89
26978;BME280;56314;48.088;11.642;2023-03-19T07:53:18;95422.88;;;9.49;73.60
26978;BME280;56314;48.088;11.642;2023-03-19T07:55:44;95428.63;;;9.54;75.08
26978;BME280;56314;48.088;11.642;2023-03-19T07:58:09;95423.16;;;9.58;76.71
26978;BME280;56314;48.088;11.642;2023-03-19T08:00:35;95416.22;;;9.57;77.17
26978;BME280;56314;48.088;11.642;2023-03-19T08:03:00;95416.34;;;9.55;77.34
26978;BME280;56314;48.088;11.642;2023-03-19T08:05:26;95419.25;;;9.63;77.27
26978;BME280;56314;48.088;11.642;2023-03-19T08:07:51;95416.53;;;9.65;76.26
26978;BME280;56314;48.088;11.642;2023-03-19T08:10:16;95422.50;;;9.67;76.32
26978;BME280;56314;48.088;11.642;2023-03-19T08:12:42;95425.38;;;9.75;77.04
26978;BME280;56314;48.088;11.642;2023-03-19T08:15:09;95416.06;;;9.71;77.08
26978;BME280;56314;48.088;11.642;2023-03-19T08:17:36;95423.31;;;9.67;78.11
26978;BME280;56314;48.088;11.642;2023-03-19T08:20:06;95424.19;;;9.68;79.39
26978;BME280;56314;48.088;11.642;2023-03-19T08:22:33;95417.34;;;9.65;78.77
26978;BME280;56314;48.088;11.642;2023-03-19T08:24:59;95420.19;;;9.62;79.22
26978;BME280;56314;48.088;11.642;2023-03-19T08:27:24;95414.13;;;9.62;79.74
26978;BME280;56314;48.088;11.642;2023-03-19T08:29:51;95415.47;;;9.67;79.15
26978;BME280;56314;48.088;11.642;2023-03-19T08:32:17;95419.03;;;9.66;78.95
26978;BME280;56314;48.088;11.642;2023-03-19T08:34:42;95418.28;;;9.64;78.57
26978;BME280;56314;48.088;11.642;2023-03-19T08:37:07;95421.56;;;9.68;78.10
26978;BME280;56314;48.088;11.642;2023-03-19T08:39:33;95424.88;;;9.70;77.37
26978;BME280;56314;48.088;11.642;2023-03-19T08:41:58;95429.91;;;9.73;78.15
26978;BME280;56314;48.088;11.642;2023-03-19T08:44:24;95431.25;;;9.79;77.67
26978;BME280;56314;48.088;11.642;2023-03-19T08:46:49;95439.28;;;9.89;78.67
26978;BME280;56314;48.088;11.642;2023-03-19T08:49:14;95438.34;;;9.90;78.11
26978;BME280;56314;48.088;11.642;2023-03-19T08:51:40;95442.72;;;9.89;78.35
26978;BME280;56314;48.088;11.642;2023-03-19T08:54:05;95445.84;;;9.94;77.15
26978;BME280;56314;48.088;11.642;2023-03-19T08:56:30;95446.03;;;10.04;76.86
26978;BME280;56314;48.088;11.642;2023-03-19T08:58:56;95440.44;;;10.09;78.46
26978;BME280;56314;48.088;11.642;2023-03-19T09:01:22;95446.06;;;10.15;78.37
26978;BME280;56314;48.088;11.642;2023-03-19T09:03:48;95446.09;;;10.27;77.83
26978;BME280;56314;48.088;11.642;2023-03-19T09:06:13;95441.91;;;10.36;76.29
26978;BME280;56314;48.088;11.642;2023-03-19T09:08:39;95451.50;;;10.48;77.13
26978;BME280;56314;48.088;11.642;2023-03-19T09:11:05;95444.50;;;10.60;76.27
26978;BME280;56314;48.088;11.642;2023-03-19T09:13:31;95446.06;;;10.74;75.06
26978;BME280;56314;48.088;11.642;2023-03-19T09:15:57;95458.47;;;10.83;74.78
26978;BME280;56314;48.088;11.642;2023-03-19T09:18:22;95449.19;;;10.90;73.51
26978;BME280;56314;48.088;11.642;2023-03-19T09:20:50;95460.28;;;11.05;72.62
26978;BME280;56314;48.088;11.642;2023-03-19T09:23:15;95449.41;;;11.21;71.63
26978;BME280;56314;48.088;11.642;2023-03-19T09:25:41;95455.59;;;11.32;71.24
26978;BME280;56314;48.088;11.642;2023-03-19T09:28:06;95450.44;;;11.42;69.93
26978;BME280;56314;48.088;11.642;2023-03-19T09:30:32;95457.13;;;11.57;69.71
26978;BME280;56314;48.088;11.642;2023-03-19T09:32:58;95452.06;;;11.65;69.38
26978;BME280;56314;48.088;11.642;2023-03-19T09:35:23;95454.16;;;11.94;67.62
26978;BME280;56314;48.088;11.642;2023-03-19T09:37:49;95447.28;;;12.14;66.95
26978;BME280;56314;48.088;11.642;2023-03-19T09:40:26;95458.19;;;12.31;65.52
26978;BME280;56314;48.088;11.642;2023-03-19T09:45:22;95453.16;;;12.28;64.69
26978;BME280;56314;48.088;11.642;2023-03-19T09:47:50;95467.44;;;12.25;65.20
26978;BME280;56314;48.088;11.642;2023-03-19T09:50:22;95477.81;;;12.27;65.71
26978;BME280;56314;48.088;11.642;2023-03-19T09:57:49;95469.44;;;12.00;66.14
26978;BME280;56314;48.088;11.642;2023-03-19T10:00:24;95473.84;;;12.11;66.65
26978;BME280;56314;48.088;11.642;2023-03-19T10:03:02;95471.94;;;12.13;66.12
26978;BME280;56314;48.088;11.642;2023-03-19T10:06:08;95472.84;;;12.24;65.39
26978;BME280;56314;48.088;11.642;2023-03-19T10:16:45;95456.59;;;12.61;64.25
26978;BME280;56314;48.088;11.642;2023-03-19T10:19:16;95452.41;;;12.58;64.63
26978;BME280;56314;48.088;11.642;2023-03-19T10:21:49;95449.00;;;12.68;63.92
26978;BME280;56314;48.088;11.642;2023-03-19T10:24:21;95445.41;;;12.69;63.42
26978;BME280;56314;48.088;11.642;2023-03-19T10:26:49;95444.22;;;12.83;63.39
26978;BME280;56314;48.088;11.642;2023-03-19T10:29:22;95448.00;;;13.21;62.23
26978;BME280;56314;48.088;11.642;2023-03-19T10:36:56;95440.75;;;13.54;61.09
26978;BME280;56314;48.088;11.642;2023-03-19T10:39:22;95442.47;;;13.65;58.93
26978;BME280;56314;48.088;11.642;2023-03-19T10:42:07;95441.06;;;13.61;58.79
26978;BME280;56314;48.088;11.642;2023-03-19T10:44:42;95452.28;;;13.53;58.78
26978;BME280;56314;48.088;11.642;2023-03-19T10:47:12;95451.88;;;13.58;58.71
26978;BME280;56314;48.088;11.642;2023-03-19T10:49:38;95454.63;;;13.46;58.83
26978;BME280;56314;48.088;11.642;2023-03-19T10:52:04;95444.00;;;13.27;58.50
26978;BME280;56314;48.088;11.642;2023-03-19T10:54:30;95448.72;;;13.33;59.26
26978;BME280;56314;48.088;11.642;2023-03-19T10:56:59;95446.25;;;13.41;59.91
26978;BME280;56314;48.088;11.642;2023-03-19T11:01:58;95433.56;;;13.56;58.15
26978;BME280;56314;48.088;11.642;2023-03-19T11:04:26;95432.72;;;13.65;58.25
26978;BME280;56314;48.088;11.642;2023-03-19T11:06:55;95428.72;;;14.00;57.26
26978;BME280;56314;48.088;11.642;2023-03-19T11:09:36;95420.25;;;14.07;56.30
26978;BME280;56314;48.088;11.642;2023-03-19T11:14:50;95425.13;;;14.11;54.93
26978;BME280;56314;48.088;11.642;2023-03-19T11:17:36;95432.34;;;13.99;55.58
26978;BME280;56314;48.088;11.642;2023-03-19T11:22:40;95433.09;;;13.51;56.49
26978;BME280;56314;48.088;11.642;2023-03-19T11:27:43;95430.06;;;13.46;57.89
26978;BME280;56314;48.088;11.642;2023-03-19T11:30:36;95428.47;;;13.33;56.82
26978;BME280;56314;48.088;11.642;2023-03-19T11:35:37;95429.41;;;13.22;57.90
26978;BME280;56314;48.088;11.642;2023-03-19T11:38:15;95418.72;;;13.24;57.78
26978;BME280;56314;48.088;11.642;2023-03-19T11:40:46;95421.78;;;13.29;57.96
26978;BME280;56314;48.088;11.642;2023-03-19T11:43:36;95418.88;;;13.32;57.94
26978;BME280;56314;48.088;11.642;2023-03-19T11:46:06;95416.34;;;13.21;56.97
26978;BME280;56314;48.088;11.642;2023-03-19T11:51:37;95401.75;;;13.87;56.23
26978;BME280;56314;48.088;11.642;2023-03-19T11:54:15;95402.44;;;14.28;54.80
26978;BME280;56314;48.088;11.642;2023-03-19T11:56:55;95401.31;;;14.31;54.30
26978;BME280;56314;48.088;11.642;2023-03-19T12:05:07;95388.16;;;14.01;53.30
26978;BME280;56314;48.088;11.642;2023-03-19T12:07:48;95391.63;;;14.12;52.81
26978;BME280;56314;48.088;11.642;2023-03-19T12:19:03;95369.09;;;14.08;53.44
26978;BME280;56314;48.088;11.642;2023-03-19T12:21:29;95371.22;;;13.94;53.43
26978;BME280;56314;48.088;11.642;2023-03-19T12:24:11;95378.41;;;14.12;53.49
26978;BME280;56314;48.088;11.642;2023-03-19T12:26:50;95373.06;;;14.41;52.00
26978;BME280;56314;48.088;11.642;2023-03-19T12:29:39;95363.66;;;14.86;51.54
26978;BME280;56314;48.088;11.642;2023-03-19T12:34:52;95354.91;;;15.96;47.63
26978;BME280;56314;48.088;11.642;2023-03-19T12:37:43;95348.91;;;16.65;45.88
26978;BME280;56314;48.088;11.642;2023-03-19T12:42:38;95333.34;;;17.56;44.33
26978;BME280;56314;48.088;11.642;2023-03-19T12:45:22;95336.19;;;17.79;44.20
26978;BME280;56314;48.088;11.642;2023-03-19T12:47:56;95337.53;;;17.75;43.70
26978;BME280;56314;48.088;11.642;2023-03-19T12:50:25;95334.31;;;17.46;43.12
26978;BME280;56314;48.088;11.642;2023-03-19T12:52:54;95333.69;;;17.01;42.75
26978;BME280;56314;48.088;11.642;2023-03-19T12:55:24;95329.03;;;16.95;43.60
26978;BME280;56314;48.088;11.642;2023-03-19T12:58:00;95328.16;;;17.29;42.98
26978;BME280;56314;48.088;11.642;2023-03-19T13:00:57;95326.88;;;17.58;41.87
26978;BME280;56314;48.088;11.642;2023-03-19T13:06:50;95319.44;;;17.02;43.78
26978;BME280;56314;48.088;11.642;2023-03-19T13:09:42;95323.47;;;16.45;44.39
26978;BME280;56314;48.088;11.642;2023-03-19T13:12:16;95322.34;;;16.04;45.07
26978;BME280;56314;48.088;11.642;2023-03-19T13:14:52;95325.38;;;15.73;46.29
26978;BME280;56314;48.088;11.642;2023-03-19T13:23:05;95319.03;;;15.83;45.38
26978;BME280;56314;48.088;11.642;2023-03-19T13:25:34;95323.72;;;15.90;45.57
26978;BME280;56314;48.088;11.642;2023-03-19T13:28:08;95318.75;;;15.87;42.05
26978;BME280;56314;48.088;11.642;2023-03-19T13:30:39;95311.78;;;15.67;43.22
26978;BME280;56314;48.088;11.642;2023-03-19T13:33:25;95317.75;;;15.69;44.93
26978;BME280;56314;48.088;11.642;2023-03-19T13:35:51;95313.50;;;15.59;44.39
26978;BME280;56314;48.088;11.642;2023-03-19T13:38:23;95318.28;;;15.37;45.70
26978;BME280;56314;48.088;11.642;2023-03-19T13:40:54;95318.84;;;15.31;45.96
26978;BME280;56314;48.088;11.642;2023-03-19T13:43:21;95310.59;;;15.16;46.61
26978;BME280;56314;48.088;11.642;2023-03-19T13:45:52;95312.41;;;14.97;45.17
26978;BME280;56314;48.088;11.642;2023-03-19T13:50:59;95314.19;;;14.69;47.33
26978;BME280;56314;48.088;11.642;2023-03-19T13:53:34;95314.47;;;14.66;47.55
26978;BME280;56314;48.088;11.642;2023-03-19T13:56:04;95312.56;;;14.48;47.76
26978;BME280;56314;48.088;11.642;2023-03-19T13:58:52;95314.88;;;14.23;48.28
26978;BME280;56314;48.088;11.642;2023-03-19T14:01:35;95313.53;;;13.99;48.85
26978;BME280;56314;48.088;11.642;2023-03-19T14:04:05;95312.03;;;13.87;48.83
26978;BME280;56314;48.088;11.642;2023-03-19T14:06:42;95311.91;;;13.79;49.20
26978;BME280;56314;48.088;11.642;2023-03-19T14:11:53;95306.50;;;13.61;50.28
26978;BME280;56314;48.088;11.642;2023-03-19T14:14:20;95307.75;;;13.57;49.70
26978;BME280;56314;48.088;11.642;2023-03-19T14:16:48;95306.50;;;13.51;48.82